sensor_id;sensor_type;location;lat;lon;timestamp;P1;durP1;ratioP1;P2;durP2;ratioP2
51792;SDS011;37850;53.178;6.376;2022-12-18T00:01:01;108.38;;;36.90;;
51792;SDS011;37850;53.178;6.376;2022-12-18T00:03:34;106.65;;;37.08;;
51792;SDS011;37850;53.178;6.376;2022-12-18T00:06:01;99.88;;;34.05;;
51792;SDS011;37850;53.178;6.376;2022-12-18T00:08:27;109.65;;;35.10;;
51792;SDS011;37850;53.178;6.376;2022-12-18T00:10:53;102.15;;;35.60;;
51792;SDS011;37850;53.178;6.376;2022-12-18T00:13:19;103.75;;;34.60;;
51792;SDS011;37850;53.178;6.376;2022-12-18T00:15:45;114.18;;;35.63;;
51792;SDS011;37850;53.178;6.376;2022-12-18T00:18:11;106.97;;;36.13;;
51792;SDS011;37850;53.178;6.376;2022-12-18T00:20:37;101.85;;;33.22;;
51792;SDS011;37850;53.178;6.376;2022-12-18T00:23:05;99.50;;;35.00;;
51792;SDS011;37850;53.178;6.376;2022-12-18T00:25:32;109.85;;;35.97;;
51792;SDS011;37850;53.178;6.376;2022-12-18T00:27:59;97.18;;;33.03;;
51792;SDS011;37850;53.178;6.376;2022-12-18T00:30:26;105.45;;;35.38;;
51792;SDS011;37850;53.178;6.376;2022-12-18T00:32:51;105.28;;;33.92;;
51792;SDS011;37850;53.178;6.376;2022-12-18T00:35:18;102.47;;;35.90;;
51792;SDS011;37850;53.178;6.376;2022-12-18T00:37:43;107.18;;;34.40;;
51792;SDS011;37850;53.178;6.376;2022-12-18T00:40:09;101.28;;;34.25;;
51792;SDS011;37850;53.178;6.376;2022-12-18T00:42:36;106.57;;;32.50;;
51792;SDS011;37850;53.178;6.376;2022-12-18T00:45:20;105.70;;;33.60;;
51792;SDS011;37850;53.178;6.376;2022-12-18T00:47:48;103.03;;;35.00;;
51792;SDS011;37850;53.178;6.376;2022-12-18T00:50:13;98.95;;;32.85;;
51792;SDS011;37850;53.178;6.376;2022-12-18T00:52:39;102.07;;;32.65;;
51792;SDS011;37850;53.178;6.376;2022-12-18T00:55:05;98.45;;;33.75;;
51792;SDS011;37850;53.178;6.376;2022-12-18T00:57:31;95.78;;;34.00;;
51792;SDS011;37850;53.178;6.376;2022-12-18T00:59:57;81.93;;;28.38;;
51792;SDS011;37850;53.178;6.376;2022-12-18T01:02:23;97.82;;;32.17;;
51792;SDS011;37850;53.178;6.376;2022-12-18T01:04:49;101.97;;;33.20;;
51792;SDS011;37850;53.178;6.376;2022-12-18T01:07:14;86.18;;;31.38;;
51792;SDS011;37850;53.178;6.376;2022-12-18T01:09:40;100.00;;;31.77;;
51792;SDS011;37850;53.178;6.376;2022-12-18T01:12:06;93.22;;;31.40;;
51792;SDS011;37850;53.178;6.376;2022-12-18T01:14:31;92.97;;;32.55;;
51792;SDS011;37850;53.178;6.376;2022-12-18T01:16:57;98.38;;;32.30;;
51792;SDS011;37850;53.178;6.376;2022-12-18T01:19:23;102.38;;;34.20;;
51792;SDS011;37850;53.178;6.376;2022-12-18T01:21:49;99.05;;;32.58;;
51792;SDS011;37850;53.178;6.376;2022-12-18T01:24:15;97.55;;;32.50;;
51792;SDS011;37850;53.178;6.376;2022-12-18T01:26:40;88.70;;;32.22;;
51792;SDS011;37850;53.178;6.376;2022-12-18T01:29:06;95.70;;;32.17;;
51792;SDS011;37850;53.178;6.376;2022-12-18T01:31:33;91.15;;;30.75;;
51792;SDS011;37850;53.178;6.376;2022-12-18T01:34:02;92.43;;;31.17;;
51792;SDS011;37850;53.178;6.376;2022-12-18T01:38:59;86.80;;;29.55;;
51792;SDS011;37850;53.178;6.376;2022-12-18T01:41:27;91.38;;;29.52;;
51792;SDS011;37850;53.178;6.376;2022-12-18T01:50:06;80.50;;;28.40;;
51792;SDS011;37850;53.178;6.376;2022-12-18T01:53:11;86.22;;;27.92;;
51792;SDS011;37850;53.178;6.376;2022-12-18T01:55:43;86.30;;;27.70;;
51792;SDS011;37850;53.178;6.376;2022-12-18T01:58:13;88.75;;;29.40;;
51792;SDS011;37850;53.178;6.376;2022-12-18T02:00:40;87.25;;;29.25;;
51792;SDS011;37850;53.178;6.376;2022-12-18T02:03:05;85.13;;;28.95;;
51792;SDS011;37850;53.178;6.376;2022-12-18T02:05:49;87.47;;;28.63;;
51792;SDS011;37850;53.178;6.376;2022-12-18T02:09:07;87.90;;;30.13;;
51792;SDS011;37850;53.178;6.376;2022-12-18T02:11:39;68.32;;;22.35;;
51792;SDS011;37850;53.178;6.376;2022-12-18T02:14:21;93.18;;;29.35;;
51792;SDS011;37850;53.178;6.376;2022-12-18T02:17:03;90.68;;;28.88;;
51792;SDS011;37850;53.178;6.376;2022-12-18T02:22:26;80.18;;;27.30;;
51792;SDS011;37850;53.178;6.376;2022-12-18T02:28:11;86.35;;;28.38;;
51792;SDS011;37850;53.178;6.376;2022-12-18T02:30:40;81.97;;;29.05;;
51792;SDS011;37850;53.178;6.376;2022-12-18T02:33:08;75.35;;;26.63;;
51792;SDS011;37850;53.178;6.376;2022-12-18T02:35:36;86.93;;;30.27;;
51792;SDS011;37850;53.178;6.376;2022-12-18T02:38:05;86.10;;;27.85;;
51792;SDS011;37850;53.178;6.376;2022-12-18T02:40:31;82.85;;;30.17;;
51792;SDS011;37850;53.178;6.376;2022-12-18T02:43:08;87.13;;;30.88;;
51792;SDS011;37850;53.178;6.376;2022-12-18T02:45:45;87.50;;;30.27;;
51792;SDS011;37850;53.178;6.376;2022-12-18T02:48:12;100.50;;;31.25;;
51792;SDS011;37850;53.178;6.376;2022-12-18T02:50:41;82.13;;;29.20;;
51792;SDS011;37850;53.178;6.376;2022-12-18T02:53:45;85.57;;;28.65;;
51792;SDS011;37850;53.178;6.376;2022-12-18T02:56:19;83.70;;;28.70;;
51792;SDS011;37850;53.178;6.376;2022-12-18T03:01:21;87.65;;;29.77;;
51792;SDS011;37850;53.178;6.376;2022-12-18T03:03:55;85.93;;;29.80;;
51792;SDS011;37850;53.178;6.376;2022-12-18T03:08:59;90.93;;;30.70;;
51792;SDS011;37850;53.178;6.376;2022-12-18T03:11:35;89.82;;;30.67;;
51792;SDS011;37850;53.178;6.376;2022-12-18T03:14:23;94.95;;;32.30;;
51792;SDS011;37850;53.178;6.376;2022-12-18T03:16:53;94.30;;;31.95;;
51792;SDS011;37850;53.178;6.376;2022-12-18T03:19:24;99.40;;;32.58;;
51792;SDS011;37850;53.178;6.376;2022-12-18T03:21:54;93.03;;;31.17;;
51792;SDS011;37850;53.178;6.376;2022-12-18T03:24:22;98.45;;;33.50;;
51792;SDS011;37850;53.178;6.376;2022-12-18T03:26:53;106.07;;;33.25;;
51792;SDS011;37850;53.178;6.376;2022-12-18T03:29:27;99.03;;;33.10;;
51792;SDS011;37850;53.178;6.376;2022-12-18T03:32:02;111.00;;;32.97;;
51792;SDS011;37850;53.178;6.376;2022-12-18T03:34:35;96.40;;;32.47;;
51792;SDS011;37850;53.178;6.376;2022-12-18T03:37:04;101.53;;;33.15;;
51792;SDS011;37850;53.178;6.376;2022-12-18T03:39:31;97.63;;;32.90;;
51792;SDS011;37850;53.178;6.376;2022-12-18T03:42:08;90.00;;;32.08;;
51792;SDS011;37850;53.178;6.376;2022-12-18T03:44:44;93.95;;;32.78;;
51792;SDS011;37850;53.178;6.376;2022-12-18T03:47:38;94.22;;;32.40;;
51792;SDS011;37850;53.178;6.376;2022-12-18T03:55:51;94.20;;;33.22;;
51792;SDS011;37850;53.178;6.376;2022-12-18T03:58:19;91.72;;;33.17;;
51792;SDS011;37850;53.178;6.376;2022-12-18T04:00:48;90.57;;;31.10;;
51792;SDS011;37850;53.178;6.376;2022-12-18T04:03:17;82.55;;;30.33;;
51792;SDS011;37850;53.178;6.376;2022-12-18T04:05:46;83.95;;;31.08;;
51792;SDS011;37850;53.178;6.376;2022-12-18T04:08:15;89.00;;;30.15;;
51792;SDS011;37850;53.178;6.376;2022-12-18T04:10:41;88.70;;;30.60;;
51792;SDS011;37850;53.178;6.376;2022-12-18T04:13:08;92.97;;;31.20;;
51792;SDS011;37850;53.178;6.376;2022-12-18T04:15:34;81.60;;;29.63;;
51792;SDS011;37850;53.178;6.376;2022-12-18T04:18:01;83.13;;;30.58;;
51792;SDS011;37850;53.178;6.376;2022-12-18T04:20:27;80.20;;;29.50;;
51792;SDS011;37850;53.178;6.376;2022-12-18T04:22:53;78.63;;;28.55;;
51792;SDS011;37850;53.178;6.376;2022-12-18T04:25:19;78.75;;;27.50;;
51792;SDS011;37850;53.178;6.376;2022-12-18T04:27:44;74.55;;;28.20;;
51792;SDS011;37850;53.178;6.376;2022-12-18T04:30:10;77.85;;;27.92;;
51792;SDS011;37850;53.178;6.376;2022-12-18T04:32:36;82.57;;;28.80;;
51792;SDS011;37850;53.178;6.376;2022-12-18T04:35:02;72.40;;;27.58;;
51792;SDS011;37850;53.178;6.376;2022-12-18T04:37:29;77.18;;;28.27;;
51792;SDS011;37850;53.178;6.376;2022-12-18T04:39:55;76.32;;;27.48;;
51792;SDS011;37850;53.178;6.376;2022-12-18T04:42:21;73.50;;;28.00;;
51792;SDS011;37850;53.178;6.376;2022-12-18T04:44:46;71.78;;;25.95;;
51792;SDS011;37850;53.178;6.376;2022-12-18T04:47:12;72.03;;;27.45;;
51792;SDS011;37850;53.178;6.376;2022-12-18T04:49:38;74.47;;;28.40;;
51792;SDS011;37850;53.178;6.376;2022-12-18T04:52:04;72.70;;;27.85;;
51792;SDS011;37850;53.178;6.376;2022-12-18T04:54:32;81.90;;;29.23;;
51792;SDS011;37850;53.178;6.376;2022-12-18T04:56:58;70.28;;;26.73;;
51792;SDS011;37850;53.178;6.376;2022-12-18T04:59:23;71.97;;;26.73;;
51792;SDS011;37850;53.178;6.376;2022-12-18T05:01:49;69.82;;;25.98;;
51792;SDS011;37850;53.178;6.376;2022-12-18T05:04:15;74.47;;;24.95;;
51792;SDS011;37850;53.178;6.376;2022-12-18T05:06:41;76.13;;;27.52;;
51792;SDS011;37850;53.178;6.376;2022-12-18T05:09:06;80.38;;;26.50;;
51792;SDS011;37850;53.178;6.376;2022-12-18T05:11:32;80.90;;;26.58;;
51792;SDS011;37850;53.178;6.376;2022-12-18T05:14:01;69.28;;;25.65;;
51792;SDS011;37850;53.178;6.376;2022-12-18T05:16:27;77.82;;;28.83;;
51792;SDS011;37850;53.178;6.376;2022-12-18T05:18:52;76.22;;;26.08;;
51792;SDS011;37850;53.178;6.376;2022-12-18T05:21:18;72.28;;;26.02;;
51792;SDS011;37850;53.178;6.376;2022-12-18T05:23:44;74.32;;;24.13;;
51792;SDS011;37850;53.178;6.376;2022-12-18T05:26:11;70.13;;;25.10;;
51792;SDS011;37850;53.178;6.376;2022-12-18T05:28:41;77.67;;;25.27;;
51792;SDS011;37850;53.178;6.376;2022-12-18T05:31:06;78.15;;;27.13;;
51792;SDS011;37850;53.178;6.376;2022-12-18T05:33:33;69.38;;;25.13;;
51792;SDS011;37850;53.178;6.376;2022-12-18T05:36:03;69.05;;;24.15;;
51792;SDS011;37850;53.178;6.376;2022-12-18T05:38:32;72.07;;;24.10;;
51792;SDS011;37850;53.178;6.376;2022-12-18T05:40:58;75.90;;;27.30;;
51792;SDS011;37850;53.178;6.376;2022-12-18T05:43:25;68.75;;;24.38;;
51792;SDS011;37850;53.178;6.376;2022-12-18T05:45:51;67.05;;;24.67;;
51792;SDS011;37850;53.178;6.376;2022-12-18T05:48:18;67.32;;;24.60;;
51792;SDS011;37850;53.178;6.376;2022-12-18T05:50:45;77.35;;;24.83;;
51792;SDS011;37850;53.178;6.376;2022-12-18T05:53:12;71.07;;;25.00;;
51792;SDS011;37850;53.178;6.376;2022-12-18T05:55:40;67.28;;;23.83;;
51792;SDS011;37850;53.178;6.376;2022-12-18T05:58:07;72.88;;;24.50;;
51792;SDS011;37850;53.178;6.376;2022-12-18T06:00:34;71.78;;;22.52;;
51792;SDS011;37850;53.178;6.376;2022-12-18T06:03:05;58.38;;;20.60;;
51792;SDS011;37850;53.178;6.376;2022-12-18T06:05:49;68.18;;;23.35;;
51792;SDS011;37850;53.178;6.376;2022-12-18T06:08:15;72.05;;;25.13;;
51792;SDS011;37850;53.178;6.376;2022-12-18T06:10:41;67.03;;;23.20;;
51792;SDS011;37850;53.178;6.376;2022-12-18T06:13:07;66.55;;;25.27;;
51792;SDS011;37850;53.178;6.376;2022-12-18T06:15:35;68.68;;;24.20;;
51792;SDS011;37850;53.178;6.376;2022-12-18T06:18:02;63.63;;;21.88;;
51792;SDS011;37850;53.178;6.376;2022-12-18T06:20:28;64.85;;;23.20;;
51792;SDS011;37850;53.178;6.376;2022-12-18T06:22:54;65.45;;;23.50;;
51792;SDS011;37850;53.178;6.376;2022-12-18T06:25:19;64.20;;;24.00;;
51792;SDS011;37850;53.178;6.376;2022-12-18T06:27:46;71.78;;;24.48;;
51792;SDS011;37850;53.178;6.376;2022-12-18T06:30:14;70.03;;;23.23;;
51792;SDS011;37850;53.178;6.376;2022-12-18T06:32:40;59.55;;;22.17;;
51792;SDS011;37850;53.178;6.376;2022-12-18T06:35:07;69.07;;;25.67;;
51792;SDS011;37850;53.178;6.376;2022-12-18T06:37:33;55.45;;;20.90;;
51792;SDS011;37850;53.178;6.376;2022-12-18T06:39:59;63.50;;;22.55;;
51792;SDS011;37850;53.178;6.376;2022-12-18T06:42:25;64.97;;;22.02;;
51792;SDS011;37850;53.178;6.376;2022-12-18T06:44:51;67.50;;;23.65;;
51792;SDS011;37850;53.178;6.376;2022-12-18T06:47:17;65.97;;;23.65;;
51792;SDS011;37850;53.178;6.376;2022-12-18T06:49:43;67.25;;;21.88;;
51792;SDS011;37850;53.178;6.376;2022-12-18T06:52:09;66.88;;;21.73;;
51792;SDS011;37850;53.178;6.376;2022-12-18T06:54:36;59.47;;;21.77;;
51792;SDS011;37850;53.178;6.376;2022-12-18T06:57:01;67.30;;;23.55;;
51792;SDS011;37850;53.178;6.376;2022-12-18T06:59:27;63.85;;;23.45;;
51792;SDS011;37850;53.178;6.376;2022-12-18T07:01:53;62.58;;;21.80;;
51792;SDS011;37850;53.178;6.376;2022-12-18T07:04:18;64.78;;;21.90;;
51792;SDS011;37850;53.178;6.376;2022-12-18T07:06:44;57.58;;;20.10;;
51792;SDS011;37850;53.178;6.376;2022-12-18T07:09:10;63.03;;;23.13;;
51792;SDS011;37850;53.178;6.376;2022-12-18T07:11:36;54.85;;;21.48;;
51792;SDS011;37850;53.178;6.376;2022-12-18T07:14:01;61.15;;;21.50;;
51792;SDS011;37850;53.178;6.376;2022-12-18T07:16:27;55.45;;;21.75;;
51792;SDS011;37850;53.178;6.376;2022-12-18T07:18:56;59.30;;;20.23;;
51792;SDS011;37850;53.178;6.376;2022-12-18T07:21:22;52.30;;;20.13;;
51792;SDS011;37850;53.178;6.376;2022-12-18T07:23:49;51.45;;;19.70;;
51792;SDS011;37850;53.178;6.376;2022-12-18T07:26:15;57.20;;;20.05;;
51792;SDS011;37850;53.178;6.376;2022-12-18T07:28:42;52.40;;;18.75;;
51792;SDS011;37850;53.178;6.376;2022-12-18T07:31:10;57.38;;;20.17;;
51792;SDS011;37850;53.178;6.376;2022-12-18T07:33:37;55.22;;;19.48;;
51792;SDS011;37850;53.178;6.376;2022-12-18T07:36:03;49.92;;;19.30;;
51792;SDS011;37850;53.178;6.376;2022-12-18T07:38:32;50.20;;;19.80;;
51792;SDS011;37850;53.178;6.376;2022-12-18T07:41:02;45.65;;;19.02;;
51792;SDS011;37850;53.178;6.376;2022-12-18T07:43:29;38.90;;;15.90;;
51792;SDS011;37850;53.178;6.376;2022-12-18T07:45:55;42.95;;;18.30;;
51792;SDS011;37850;53.178;6.376;2022-12-18T07:48:21;44.15;;;17.92;;
51792;SDS011;37850;53.178;6.376;2022-12-18T07:50:47;46.50;;;18.17;;
51792;SDS011;37850;53.178;6.376;2022-12-18T07:53:12;44.13;;;17.92;;
51792;SDS011;37850;53.178;6.376;2022-12-18T07:55:39;47.08;;;17.98;;
51792;SDS011;37850;53.178;6.376;2022-12-18T07:58:06;46.17;;;17.65;;
51792;SDS011;37850;53.178;6.376;2022-12-18T08:00:33;47.40;;;19.17;;
51792;SDS011;37850;53.178;6.376;2022-12-18T08:02:59;46.28;;;18.38;;
51792;SDS011;37850;53.178;6.376;2022-12-18T08:05:24;43.58;;;17.80;;
51792;SDS011;37850;53.178;6.376;2022-12-18T08:07:51;43.80;;;19.08;;
51792;SDS011;37850;53.178;6.376;2022-12-18T08:10:17;50.13;;;19.33;;
51792;SDS011;37850;53.178;6.376;2022-12-18T08:12:43;44.22;;;17.83;;
51792;SDS011;37850;53.178;6.376;2022-12-18T08:15:09;40.75;;;18.05;;
51792;SDS011;37850;53.178;6.376;2022-12-18T08:17:35;38.88;;;17.55;;
51792;SDS011;37850;53.178;6.376;2022-12-18T08:20:01;43.28;;;17.85;;
51792;SDS011;37850;53.178;6.376;2022-12-18T08:22:27;38.03;;;17.58;;
51792;SDS011;37850;53.178;6.376;2022-12-18T08:24:52;43.03;;;18.58;;
51792;SDS011;37850;53.178;6.376;2022-12-18T08:27:18;41.08;;;17.90;;
51792;SDS011;37850;53.178;6.376;2022-12-18T08:29:44;39.50;;;17.30;;
51792;SDS011;37850;53.178;6.376;2022-12-18T08:32:10;36.90;;;15.77;;
51792;SDS011;37850;53.178;6.376;2022-12-18T08:34:35;42.10;;;17.35;;
51792;SDS011;37850;53.178;6.376;2022-12-18T08:37:01;33.85;;;16.35;;
51792;SDS011;37850;53.178;6.376;2022-12-18T08:39:27;43.70;;;18.23;;
51792;SDS011;37850;53.178;6.376;2022-12-18T08:41:53;35.45;;;17.10;;
51792;SDS011;37850;53.178;6.376;2022-12-18T08:44:37;37.22;;;16.90;;
51792;SDS011;37850;53.178;6.376;2022-12-18T08:47:03;37.33;;;18.10;;
51792;SDS011;37850;53.178;6.376;2022-12-18T08:49:32;40.13;;;17.08;;
51792;SDS011;37850;53.178;6.376;2022-12-18T08:51:59;39.63;;;17.15;;
51792;SDS011;37850;53.178;6.376;2022-12-18T08:54:25;37.58;;;17.48;;
51792;SDS011;37850;53.178;6.376;2022-12-18T08:56:51;39.22;;;17.20;;
51792;SDS011;37850;53.178;6.376;2022-12-18T08:59:17;38.42;;;17.17;;
51792;SDS011;37850;53.178;6.376;2022-12-18T09:01:44;32.63;;;15.05;;
51792;SDS011;37850;53.178;6.376;2022-12-18T09:04:11;34.90;;;16.85;;
51792;SDS011;37850;53.178;6.376;2022-12-18T09:06:38;36.70;;;15.55;;
51792;SDS011;37850;53.178;6.376;2022-12-18T09:09:09;35.60;;;16.50;;
51792;SDS011;37850;53.178;6.376;2022-12-18T09:11:36;39.90;;;16.88;;
51792;SDS011;37850;53.178;6.376;2022-12-18T09:14:03;33.40;;;15.35;;
51792;SDS011;37850;53.178;6.376;2022-12-18T09:16:29;31.55;;;15.35;;
51792;SDS011;37850;53.178;6.376;2022-12-18T09:18:56;35.70;;;15.63;;
51792;SDS011;37850;53.178;6.376;2022-12-18T09:21:30;31.52;;;14.82;;
51792;SDS011;37850;53.178;6.376;2022-12-18T09:23:58;37.85;;;16.33;;
51792;SDS011;37850;53.178;6.376;2022-12-18T09:26:24;35.92;;;16.25;;
51792;SDS011;37850;53.178;6.376;2022-12-18T09:28:51;34.83;;;16.17;;
51792;SDS011;37850;53.178;6.376;2022-12-18T09:31:18;31.55;;;14.45;;
51792;SDS011;37850;53.178;6.376;2022-12-18T09:33:46;31.65;;;14.95;;
51792;SDS011;37850;53.178;6.376;2022-12-18T09:36:13;30.45;;;15.07;;
51792;SDS011;37850;53.178;6.376;2022-12-18T09:38:40;32.05;;;15.00;;
51792;SDS011;37850;53.178;6.376;2022-12-18T09:41:25;31.42;;;14.35;;
51792;SDS011;37850;53.178;6.376;2022-12-18T09:47:03;34.03;;;15.60;;
51792;SDS011;37850;53.178;6.376;2022-12-18T09:49:56;31.08;;;15.02;;
51792;SDS011;37850;53.178;6.376;2022-12-18T09:52:35;31.35;;;15.75;;
51792;SDS011;37850;53.178;6.376;2022-12-18T09:55:16;24.33;;;11.43;;
51792;SDS011;37850;53.178;6.376;2022-12-18T09:57:55;36.63;;;15.55;;
51792;SDS011;37850;53.178;6.376;2022-12-18T10:00:36;31.70;;;15.55;;
51792;SDS011;37850;53.178;6.376;2022-12-18T10:03:09;37.80;;;15.30;;
51792;SDS011;37850;53.178;6.376;2022-12-18T10:05:52;31.13;;;14.82;;
51792;SDS011;37850;53.178;6.376;2022-12-18T10:19:34;31.13;;;13.88;;
51792;SDS011;37850;53.178;6.376;2022-12-18T10:27:30;32.47;;;14.00;;
51792;SDS011;37850;53.178;6.376;2022-12-18T10:29:57;30.35;;;14.05;;
51792;SDS011;37850;53.178;6.376;2022-12-18T10:32:27;30.98;;;13.75;;
51792;SDS011;37850;53.178;6.376;2022-12-18T10:34:57;25.67;;;13.73;;
51792;SDS011;37850;53.178;6.376;2022-12-18T10:37:24;24.83;;;13.20;;
51792;SDS011;37850;53.178;6.376;2022-12-18T10:40:09;27.85;;;13.15;;
51792;SDS011;37850;53.178;6.376;2022-12-18T10:42:40;26.08;;;13.60;;
51792;SDS011;37850;53.178;6.376;2022-12-18T10:45:11;29.40;;;12.80;;
51792;SDS011;37850;53.178;6.376;2022-12-18T10:47:41;24.23;;;11.48;;
51792;SDS011;37850;53.178;6.376;2022-12-18T10:50:33;28.85;;;12.10;;
51792;SDS011;37850;53.178;6.376;2022-12-18T10:53:01;27.65;;;11.75;;
51792;SDS011;37850;53.178;6.376;2022-12-18T10:55:33;24.55;;;12.25;;
51792;SDS011;37850;53.178;6.376;2022-12-18T11:01:01;22.33;;;10.95;;
51792;SDS011;37850;53.178;6.376;2022-12-18T11:03:28;22.65;;;11.20;;
51792;SDS011;37850;53.178;6.376;2022-12-18T11:06:16;22.65;;;10.90;;
51792;SDS011;37850;53.178;6.376;2022-12-18T11:08:43;25.38;;;11.75;;
51792;SDS011;37850;53.178;6.376;2022-12-18T11:11:23;21.35;;;10.93;;
51792;SDS011;37850;53.178;6.376;2022-12-18T11:17:00;25.92;;;11.63;;
51792;SDS011;37850;53.178;6.376;2022-12-18T11:19:36;26.33;;;12.32;;
51792;SDS011;37850;53.178;6.376;2022-12-18T11:22:20;26.50;;;12.18;;
51792;SDS011;37850;53.178;6.376;2022-12-18T11:25:18;22.67;;;10.27;;
51792;SDS011;37850;53.178;6.376;2022-12-18T11:27:48;26.52;;;12.27;;
51792;SDS011;37850;53.178;6.376;2022-12-18T11:32:47;30.92;;;12.88;;
51792;SDS011;37850;53.178;6.376;2022-12-18T11:35:23;24.48;;;11.25;;
51792;SDS011;37850;53.178;6.376;2022-12-18T11:38:02;21.17;;;10.35;;
51792;SDS011;37850;53.178;6.376;2022-12-18T11:40:43;21.17;;;10.23;;
51792;SDS011;37850;53.178;6.376;2022-12-18T11:43:22;22.27;;;10.68;;
51792;SDS011;37850;53.178;6.376;2022-12-18T11:45:55;21.35;;;11.00;;
51792;SDS011;37850;53.178;6.376;2022-12-18T11:48:35;21.70;;;11.02;;
51792;SDS011;37850;53.178;6.376;2022-12-18T11:51:29;21.77;;;9.75;;
51792;SDS011;37850;53.178;6.376;2022-12-18T11:54:00;21.30;;;9.82;;
51792;SDS011;37850;53.178;6.376;2022-12-18T11:56:36;19.40;;;10.27;;
51792;SDS011;37850;53.178;6.376;2022-12-18T12:15:27;18.63;;;8.13;;
51792;SDS011;37850;53.178;6.376;2022-12-18T12:24:26;15.18;;;7.68;;
51792;SDS011;37850;53.178;6.376;2022-12-18T12:29:47;13.75;;;7.00;;
51792;SDS011;37850;53.178;6.376;2022-12-18T12:35:25;16.27;;;7.53;;
51792;SDS011;37850;53.178;6.376;2022-12-18T12:40:49;11.95;;;6.28;;
51792;SDS011;37850;53.178;6.376;2022-12-18T12:43:42;15.48;;;6.97;;
51792;SDS011;37850;53.178;6.376;2022-12-18T12:46:12;15.98;;;6.82;;
51792;SDS011;37850;53.178;6.376;2022-12-18T12:51:38;12.65;;;6.28;;
51792;SDS011;37850;53.178;6.376;2022-12-18T12:54:17;14.00;;;7.03;;
51792;SDS011;37850;53.178;6.376;2022-12-18T13:20:46;12.15;;;5.35;;
51792;SDS011;37850;53.178;6.376;2022-12-18T13:25:51;11.60;;;6.50;;
51792;SDS011;37850;53.178;6.376;2022-12-18T13:28:49;12.88;;;5.30;;
51792;SDS011;37850;53.178;6.376;2022-12-18T13:37:36;11.80;;;5.93;;
51792;SDS011;37850;53.178;6.376;2022-12-18T13:39:56;11.27;;;5.57;;
51792;SDS011;37850;53.178;6.376;2022-12-18T13:42:37;12.52;;;6.82;;
51792;SDS011;37850;53.178;6.376;2022-12-18T13:45:35;13.75;;;6.32;;
51792;SDS011;37850;53.178;6.376;2022-12-18T13:48:03;13.90;;;6.20;;
51792;SDS011;37850;53.178;6.376;2022-12-18T13:50:30;12.20;;;5.70;;
51792;SDS011;37850;53.178;6.376;2022-12-18T13:52:56;15.95;;;6.28;;
51792;SDS011;37850;53.178;6.376;2022-12-18T13:55:22;10.55;;;5.50;;
51792;SDS011;37850;53.178;6.376;2022-12-18T13:57:48;11.75;;;5.68;;
51792;SDS011;37850;53.178;6.376;2022-12-18T14:00:27;12.10;;;5.20;;
51792;SDS011;37850;53.178;6.376;2022-12-18T14:02:55;13.88;;;6.32;;
51792;SDS011;37850;53.178;6.376;2022-12-18T14:07:48;10.65;;;5.35;;
51792;SDS011;37850;53.178;6.376;2022-12-18T14:10:15;12.85;;;5.75;;
51792;SDS011;37850;53.178;6.376;2022-12-18T14:12:44;13.60;;;6.55;;
51792;SDS011;37850;53.178;6.376;2022-12-18T14:20:41;13.10;;;5.82;;
51792;SDS011;37850;53.178;6.376;2022-12-18T14:25:55;13.75;;;5.20;;
51792;SDS011;37850;53.178;6.376;2022-12-18T14:28:21;12.95;;;5.38;;
51792;SDS011;37850;53.178;6.376;2022-12-18T14:30:47;11.18;;;5.63;;
51792;SDS011;37850;53.178;6.376;2022-12-18T14:33:18;11.90;;;5.50;;
51792;SDS011;37850;53.178;6.376;2022-12-18T14:35:53;17.50;;;7.00;;
51792;SDS011;37850;53.178;6.376;2022-12-18T14:41:14;15.80;;;7.07;;
51792;SDS011;37850;53.178;6.376;2022-12-18T14:43:42;17.90;;;8.18;;
51792;SDS011;37850;53.178;6.376;2022-12-18T14:49:04;11.75;;;5.75;;
51792;SDS011;37850;53.178;6.376;2022-12-18T14:51:53;12.25;;;6.00;;
51792;SDS011;37850;53.178;6.376;2022-12-18T14:54:27;14.38;;;6.30;;
51792;SDS011;37850;53.178;6.376;2022-12-18T14:59:37;12.85;;;7.22;;
51792;SDS011;37850;53.178;6.376;2022-12-18T15:02:04;13.68;;;8.10;;
51792;SDS011;37850;53.178;6.376;2022-12-18T15:04:45;13.20;;;7.97;;
51792;SDS011;37850;53.178;6.376;2022-12-18T15:09:47;14.48;;;7.05;;
51792;SDS011;37850;53.178;6.376;2022-12-18T15:12:28;13.60;;;6.18;;
51792;SDS011;37850;53.178;6.376;2022-12-18T15:20:41;17.55;;;7.32;;
51792;SDS011;37850;53.178;6.376;2022-12-18T15:25:57;15.45;;;6.93;;
51792;SDS011;37850;53.178;6.376;2022-12-18T15:33:36;15.77;;;7.28;;
51792;SDS011;37850;53.178;6.376;2022-12-18T15:36:11;17.42;;;8.38;;
51792;SDS011;37850;53.178;6.376;2022-12-18T15:38:39;16.50;;;8.77;;
51792;SDS011;37850;53.178;6.376;2022-12-18T15:41:05;17.55;;;7.82;;
51792;SDS011;37850;53.178;6.376;2022-12-18T15:43:39;12.70;;;6.55;;
51792;SDS011;37850;53.178;6.376;2022-12-18T15:46:15;14.57;;;7.25;;
51792;SDS011;37850;53.178;6.376;2022-12-18T15:48:42;20.60;;;8.48;;
51792;SDS011;37850;53.178;6.376;2022-12-18T15:51:23;15.07;;;7.55;;
51792;SDS011;37850;53.178;6.376;2022-12-18T15:53:49;14.05;;;6.95;;
51792;SDS011;37850;53.178;6.376;2022-12-18T15:56:18;16.65;;;8.45;;
51792;SDS011;37850;53.178;6.376;2022-12-18T15:59:04;16.90;;;8.68;;
51792;SDS011;37850;53.178;6.376;2022-12-18T16:01:38;16.00;;;8.05;;
51792;SDS011;37850;53.178;6.376;2022-12-18T16:04:04;15.75;;;7.80;;
51792;SDS011;37850;53.178;6.376;2022-12-18T16:06:35;16.65;;;7.28;;
51792;SDS011;37850;53.178;6.376;2022-12-18T16:09:04;16.35;;;8.20;;
51792;SDS011;37850;53.178;6.376;2022-12-18T16:11:31;17.27;;;7.97;;
51792;SDS011;37850;53.178;6.376;2022-12-18T16:14:22;13.95;;;7.68;;
51792;SDS011;37850;53.178;6.376;2022-12-18T16:16:52;16.15;;;8.15;;
51792;SDS011;37850;53.178;6.376;2022-12-18T16:19:19;16.85;;;7.78;;
51792;SDS011;37850;53.178;6.376;2022-12-18T16:21:46;23.92;;;10.00;;
51792;SDS011;37850;53.178;6.376;2022-12-18T16:24:13;20.23;;;9.45;;
51792;SDS011;37850;53.178;6.376;2022-12-18T16:26:41;19.25;;;9.63;;
51792;SDS011;37850;53.178;6.376;2022-12-18T16:29:07;22.40;;;10.38;;
51792;SDS011;37850;53.178;6.376;2022-12-18T16:31:34;18.90;;;8.98;;
51792;SDS011;37850;53.178;6.376;2022-12-18T16:34:13;22.58;;;10.82;;
51792;SDS011;37850;53.178;6.376;2022-12-18T16:36:47;22.48;;;11.05;;
51792;SDS011;37850;53.178;6.376;2022-12-18T16:39:14;24.83;;;10.80;;
51792;SDS011;37850;53.178;6.376;2022-12-18T16:41:41;21.45;;;9.10;;
51792;SDS011;37850;53.178;6.376;2022-12-18T16:44:07;20.92;;;10.05;;
51792;SDS011;37850;53.178;6.376;2022-12-18T16:46:33;37.22;;;15.13;;
51792;SDS011;37850;53.178;6.376;2022-12-18T16:48:59;19.35;;;9.15;;
51792;SDS011;37850;53.178;6.376;2022-12-18T16:51:28;18.77;;;8.65;;
51792;SDS011;37850;53.178;6.376;2022-12-18T16:53:54;17.90;;;9.02;;
51792;SDS011;37850;53.178;6.376;2022-12-18T16:56:20;18.88;;;9.18;;
51792;SDS011;37850;53.178;6.376;2022-12-18T16:58:53;18.17;;;9.23;;
51792;SDS011;37850;53.178;6.376;2022-12-18T17:01:20;19.58;;;8.88;;
51792;SDS011;37850;53.178;6.376;2022-12-18T17:03:50;17.48;;;9.38;;
51792;SDS011;37850;53.178;6.376;2022-12-18T17:06:17;16.83;;;8.70;;
51792;SDS011;37850;53.178;6.376;2022-12-18T17:08:43;18.65;;;9.13;;
51792;SDS011;37850;53.178;6.376;2022-12-18T17:11:09;16.55;;;8.90;;
51792;SDS011;37850;53.178;6.376;2022-12-18T17:13:35;15.35;;;7.80;;
51792;SDS011;37850;53.178;6.376;2022-12-18T17:16:05;15.93;;;8.18;;